sensor_id;sensor_type;location;lat;lon;timestamp;temperature;humidity
19622;DHT22;9958;33.196;-97.114;2023-07-02T00:00:24;29.40;92.50
19622;DHT22;9958;33.196;-97.114;2023-07-02T00:02:53;29.40;92.80
19622;DHT22;9958;33.196;-97.114;2023-07-02T00:05:21;29.40;92.90
19622;DHT22;9958;33.196;-97.114;2023-07-02T00:07:51;29.30;92.90
19622;DHT22;9958;33.196;-97.114;2023-07-02T00:10:19;29.30;92.80
19622;DHT22;9958;33.196;-97.114;2023-07-02T00:12:48;29.30;93.30
19622;DHT22;9958;33.196;-97.114;2023-07-02T00:15:16;29.30;93.60
19622;DHT22;9958;33.196;-97.114;2023-07-02T00:17:44;29.30;93.80
19622;DHT22;9958;33.196;-97.114;2023-07-02T00:20:13;29.20;93.50
19622;DHT22;9958;33.196;-97.114;2023-07-02T00:22:43;29.20;93.90
19622;DHT22;9958;33.196;-97.114;2023-07-02T00:25:15;29.20;94.10
19622;DHT22;9958;33.196;-97.114;2023-07-02T00:27:43;29.20;94.10
19622;DHT22;9958;33.196;-97.114;2023-07-02T00:30:12;29.20;94.20
19622;DHT22;9958;33.196;-97.114;2023-07-02T00:32:40;29.10;94.40
19622;DHT22;9958;33.196;-97.114;2023-07-02T00:35:09;29.10;94.40
19622;DHT22;9958;33.196;-97.114;2023-07-02T00:37:37;29.00;94.40
19622;DHT22;9958;33.196;-97.114;2023-07-02T00:40:06;29.00;94.40
19622;DHT22;9958;33.196;-97.114;2023-07-02T00:42:36;29.00;94.40
19622;DHT22;9958;33.196;-97.114;2023-07-02T00:45:06;28.90;94.30
19622;DHT22;9958;33.196;-97.114;2023-07-02T00:47:35;28.90;94.60
19622;DHT22;9958;33.196;-97.114;2023-07-02T00:50:03;28.90;94.80
19622;DHT22;9958;33.196;-97.114;2023-07-02T00:52:32;28.80;95.00
19622;DHT22;9958;33.196;-97.114;2023-07-02T00:55:01;28.80;95.30
19622;DHT22;9958;33.196;-97.114;2023-07-02T00:57:29;28.80;95.40
19622;DHT22;9958;33.196;-97.114;2023-07-02T01:00:00;28.70;95.60
19622;DHT22;9958;33.196;-97.114;2023-07-02T01:02:29;28.70;95.80
19622;DHT22;9958;33.196;-97.114;2023-07-02T01:04:57;28.70;95.50
19622;DHT22;9958;33.196;-97.114;2023-07-02T01:07:26;28.60;95.60
19622;DHT22;9958;33.196;-97.114;2023-07-02T01:09:54;28.60;95.50
19622;DHT22;9958;33.196;-97.114;2023-07-02T01:12:23;28.50;95.50
19622;DHT22;9958;33.196;-97.114;2023-07-02T01:14:52;28.50;96.10
19622;DHT22;9958;33.196;-97.114;2023-07-02T01:17:24;28.50;96.30
19622;DHT22;9958;33.196;-97.114;2023-07-02T01:19:55;28.50;96.20
19622;DHT22;9958;33.196;-97.114;2023-07-02T01:22:27;28.40;96.60
19622;DHT22;9958;33.196;-97.114;2023-07-02T01:24:56;28.40;96.70
19622;DHT22;9958;33.196;-97.114;2023-07-02T01:27:28;28.30;96.70
19622;DHT22;9958;33.196;-97.114;2023-07-02T01:29:56;28.30;96.90
19622;DHT22;9958;33.196;-97.114;2023-07-02T01:32:26;28.30;96.80
19622;DHT22;9958;33.196;-97.114;2023-07-02T01:34:56;28.20;96.90
19622;DHT22;9958;33.196;-97.114;2023-07-02T01:37:25;28.20;96.80
19622;DHT22;9958;33.196;-97.114;2023-07-02T01:39:53;28.20;97.10
19622;DHT22;9958;33.196;-97.114;2023-07-02T01:42:21;28.10;97.30
19622;DHT22;9958;33.196;-97.114;2023-07-02T01:44:50;28.00;97.70
19622;DHT22;9958;33.196;-97.114;2023-07-02T01:47:18;28.00;97.90
19622;DHT22;9958;33.196;-97.114;2023-07-02T01:49:47;27.90;97.70
19622;DHT22;9958;33.196;-97.114;2023-07-02T01:52:17;27.90;97.90
19622;DHT22;9958;33.196;-97.114;2023-07-02T01:54:46;27.80;98.40
19622;DHT22;9958;33.196;-97.114;2023-07-02T01:57:14;27.80;98.40
19622;DHT22;9958;33.196;-97.114;2023-07-02T01:59:42;27.80;98.60
19622;DHT22;9958;33.196;-97.114;2023-07-02T02:02:11;27.70;98.90
19622;DHT22;9958;33.196;-97.114;2023-07-02T02:04:39;27.70;98.90
19622;DHT22;9958;33.196;-97.114;2023-07-02T02:07:07;27.60;99.00
19622;DHT22;9958;33.196;-97.114;2023-07-02T02:09:37;27.50;99.20
19622;DHT22;9958;33.196;-97.114;2023-07-02T02:12:06;27.50;99.40
19622;DHT22;9958;33.196;-97.114;2023-07-02T02:14:35;27.40;99.50
19622;DHT22;9958;33.196;-97.114;2023-07-02T02:17:03;27.40;99.70
19622;DHT22;9958;33.196;-97.114;2023-07-02T02:19:32;27.30;99.70
19622;DHT22;9958;33.196;-97.114;2023-07-02T02:22:00;27.30;99.90
19622;DHT22;9958;33.196;-97.114;2023-07-02T02:24:29;27.20;99.90
19622;DHT22;9958;33.196;-97.114;2023-07-02T02:26:59;27.20;99.90
19622;DHT22;9958;33.196;-97.114;2023-07-02T02:29:27;27.20;99.90
19622;DHT22;9958;33.196;-97.114;2023-07-02T02:31:55;27.10;99.90
19622;DHT22;9958;33.196;-97.114;2023-07-02T02:34:23;27.10;99.90
19622;DHT22;9958;33.196;-97.114;2023-07-02T02:36:52;27.00;99.90
19622;DHT22;9958;33.196;-97.114;2023-07-02T02:39:21;27.00;99.90
19622;DHT22;9958;33.196;-97.114;2023-07-02T02:41:50;27.00;99.90
19622;DHT22;9958;33.196;-97.114;2023-07-02T02:44:19;26.90;99.90
19622;DHT22;9958;33.196;-97.114;2023-07-02T02:46:48;26.90;99.90
19622;DHT22;9958;33.196;-97.114;2023-07-02T02:49:17;26.80;99.90
19622;DHT22;9958;33.196;-97.114;2023-07-02T02:51:45;26.80;99.90
19622;DHT22;9958;33.196;-97.114;2023-07-02T02:54:13;26.80;99.90
19622;DHT22;9958;33.196;-97.114;2023-07-02T02:56:43;26.70;99.90
19622;DHT22;9958;33.196;-97.114;2023-07-02T02:59:11;26.70;99.90
19622;DHT22;9958;33.196;-97.114;2023-07-02T03:01:41;26.70;99.90
19622;DHT22;9958;33.196;-97.114;2023-07-02T03:04:09;26.60;99.90
19622;DHT22;9958;33.196;-97.114;2023-07-02T03:06:37;26.60;99.90
19622;DHT22;9958;33.196;-97.114;2023-07-02T03:09:06;26.50;99.90
19622;DHT22;9958;33.196;-97.114;2023-07-02T03:11:34;26.50;99.90
19622;DHT22;9958;33.196;-97.114;2023-07-02T03:14:02;26.50;99.90
19622;DHT22;9958;33.196;-97.114;2023-07-02T03:16:31;26.40;99.90
19622;DHT22;9958;33.196;-97.114;2023-07-02T03:19:01;26.40;99.90
19622;DHT22;9958;33.196;-97.114;2023-07-02T03:21:29;26.40;99.90
19622;DHT22;9958;33.196;-97.114;2023-07-02T03:23:58;26.40;99.90
19622;DHT22;9958;33.196;-97.114;2023-07-02T03:26:27;26.30;99.90
19622;DHT22;9958;33.196;-97.114;2023-07-02T03:28:55;26.30;99.90
19622;DHT22;9958;33.196;-97.114;2023-07-02T03:31:23;26.30;99.90
19622;DHT22;9958;33.196;-97.114;2023-07-02T03:33:51;26.30;99.90
19622;DHT22;9958;33.196;-97.114;2023-07-02T03:36:21;26.30;99.90
19622;DHT22;9958;33.196;-97.114;2023-07-02T03:38:50;26.20;99.90
19622;DHT22;9958;33.196;-97.114;2023-07-02T03:41:18;26.20;99.90
19622;DHT22;9958;33.196;-97.114;2023-07-02T03:43:46;26.20;99.90
19622;DHT22;9958;33.196;-97.114;2023-07-02T03:46:15;26.20;99.90
19622;DHT22;9958;33.196;-97.114;2023-07-02T03:48:43;26.20;99.90
19622;DHT22;9958;33.196;-97.114;2023-07-02T03:51:11;26.20;99.90
19622;DHT22;9958;33.196;-97.114;2023-07-02T03:53:42;26.10;99.90
19622;DHT22;9958;33.196;-97.114;2023-07-02T03:56:10;26.10;99.90
19622;DHT22;9958;33.196;-97.114;2023-07-02T03:58:40;26.10;99.90
19622;DHT22;9958;33.196;-97.114;2023-07-02T04:01:08;26.00;99.90
19622;DHT22;9958;33.196;-97.114;2023-07-02T04:03:37;26.00;99.90
19622;DHT22;9958;33.196;-97.114;2023-07-02T04:06:05;26.00;99.90
19622;DHT22;9958;33.196;-97.114;2023-07-02T04:08:33;25.90;99.90
19622;DHT22;9958;33.196;-97.114;2023-07-02T04:11:03;25.90;99.90
19622;DHT22;9958;33.196;-97.114;2023-07-02T04:13:32;25.90;99.90
19622;DHT22;9958;33.196;-97.114;2023-07-02T04:16:00;25.80;99.90
19622;DHT22;9958;33.196;-97.114;2023-07-02T04:18:28;25.80;99.90
19622;DHT22;9958;33.196;-97.114;2023-07-02T04:20:57;25.80;99.90
19622;DHT22;9958;33.196;-97.114;2023-07-02T04:23:25;25.70;99.90
19622;DHT22;9958;33.196;-97.114;2023-07-02T04:25:53;25.70;99.90
19622;DHT22;9958;33.196;-97.114;2023-07-02T04:28:23;25.70;99.90
19622;DHT22;9958;33.196;-97.114;2023-07-02T04:30:52;25.60;99.90
19622;DHT22;9958;33.196;-97.114;2023-07-02T04:33:20;25.60;99.90
19622;DHT22;9958;33.196;-97.114;2023-07-02T04:35:48;25.60;99.90
19622;DHT22;9958;33.196;-97.114;2023-07-02T04:38:17;25.60;99.90
19622;DHT22;9958;33.196;-97.114;2023-07-02T04:40:45;25.60;99.90
19622;DHT22;9958;33.196;-97.114;2023-07-02T04:43:13;25.50;99.90
19622;DHT22;9958;33.196;-97.114;2023-07-02T04:45:46;25.50;99.90
19622;DHT22;9958;33.196;-97.114;2023-07-02T04:48:14;25.50;99.90
19622;DHT22;9958;33.196;-97.114;2023-07-02T04:50:43;25.50;99.90
19622;DHT22;9958;33.196;-97.114;2023-07-02T04:53:11;25.50;99.90
19622;DHT22;9958;33.196;-97.114;2023-07-02T04:55:39;25.50;99.90
19622;DHT22;9958;33.196;-97.114;2023-07-02T04:58:08;25.50;99.90
19622;DHT22;9958;33.196;-97.114;2023-07-02T05:00:36;25.40;99.90
19622;DHT22;9958;33.196;-97.114;2023-07-02T05:03:06;25.40;99.90
19622;DHT22;9958;33.196;-97.114;2023-07-02T05:05:34;25.30;99.90
19622;DHT22;9958;33.196;-97.114;2023-07-02T05:08:03;25.30;99.90
19622;DHT22;9958;33.196;-97.114;2023-07-02T05:10:31;25.30;99.90
19622;DHT22;9958;33.196;-97.114;2023-07-02T05:13:00;25.20;99.90
19622;DHT22;9958;33.196;-97.114;2023-07-02T05:15:28;25.20;99.90
19622;DHT22;9958;33.196;-97.114;2023-07-02T05:17:56;25.20;99.90
19622;DHT22;9958;33.196;-97.114;2023-07-02T05:20:27;25.10;99.90
19622;DHT22;9958;33.196;-97.114;2023-07-02T05:22:55;25.10;99.90
19622;DHT22;9958;33.196;-97.114;2023-07-02T05:25:23;25.10;99.90
19622;DHT22;9958;33.196;-97.114;2023-07-02T05:27:52;25.10;99.90
19622;DHT22;9958;33.196;-97.114;2023-07-02T05:30:20;25.00;99.90
19622;DHT22;9958;33.196;-97.114;2023-07-02T05:32:48;25.00;99.90
19622;DHT22;9958;33.196;-97.114;2023-07-02T05:35:17;24.90;99.90
19622;DHT22;9958;33.196;-97.114;2023-07-02T05:37:46;24.90;99.90
19622;DHT22;9958;33.196;-97.114;2023-07-02T05:40:15;24.90;99.90
19622;DHT22;9958;33.196;-97.114;2023-07-02T05:42:43;24.80;99.90
19622;DHT22;9958;33.196;-97.114;2023-07-02T05:45:12;24.80;99.90
19622;DHT22;9958;33.196;-97.114;2023-07-02T05:47:40;24.80;99.90
19622;DHT22;9958;33.196;-97.114;2023-07-02T05:50:09;24.80;99.90
19622;DHT22;9958;33.196;-97.114;2023-07-02T05:52:37;24.70;99.90
19622;DHT22;9958;33.196;-97.114;2023-07-02T05:55:08;24.70;99.90
19622;DHT22;9958;33.196;-97.114;2023-07-02T05:57:37;24.70;99.90
19622;DHT22;9958;33.196;-97.114;2023-07-02T06:00:07;24.70;99.90
19622;DHT22;9958;33.196;-97.114;2023-07-02T06:02:35;24.60;99.90
19622;DHT22;9958;33.196;-97.114;2023-07-02T06:05:04;24.60;99.90
19622;DHT22;9958;33.196;-97.114;2023-07-02T06:07:33;24.60;99.90
19622;DHT22;9958;33.196;-97.114;2023-07-02T06:10:01;24.60;99.90
19622;DHT22;9958;33.196;-97.114;2023-07-02T06:12:31;24.60;99.90
19622;DHT22;9958;33.196;-97.114;2023-07-02T06:14:59;24.50;99.90
19622;DHT22;9958;33.196;-97.114;2023-07-02T06:17:27;24.50;99.90
19622;DHT22;9958;33.196;-97.114;2023-07-02T06:19:57;24.50;99.90
19622;DHT22;9958;33.196;-97.114;2023-07-02T06:22:25;24.40;99.90
19622;DHT22;9958;33.196;-97.114;2023-07-02T06:24:53;24.40;99.90
19622;DHT22;9958;33.196;-97.114;2023-07-02T06:27:22;24.40;99.90
19622;DHT22;9958;33.196;-97.114;2023-07-02T06:29:52;24.40;99.90
19622;DHT22;9958;33.196;-97.114;2023-07-02T06:32:20;24.30;99.90
19622;DHT22;9958;33.196;-97.114;2023-07-02T06:34:48;24.40;99.90
19622;DHT22;9958;33.196;-97.114;2023-07-02T06:37:16;24.30;99.90
19622;DHT22;9958;33.196;-97.114;2023-07-02T06:39:45;24.30;99.90
19622;DHT22;9958;33.196;-97.114;2023-07-02T06:42:13;24.30;99.90
19622;DHT22;9958;33.196;-97.114;2023-07-02T06:44:41;24.30;99.90
19622;DHT22;9958;33.196;-97.114;2023-07-02T06:47:11;24.20;99.90
19622;DHT22;9958;33.196;-97.114;2023-07-02T06:49:40;24.20;99.90
19622;DHT22;9958;33.196;-97.114;2023-07-02T06:52:08;24.20;99.90
19622;DHT22;9958;33.196;-97.114;2023-07-02T06:54:36;24.20;99.90
19622;DHT22;9958;33.196;-97.114;2023-07-02T06:57:05;24.20;99.90
19622;DHT22;9958;33.196;-97.114;2023-07-02T06:59:33;24.20;99.90
19622;DHT22;9958;33.196;-97.114;2023-07-02T07:02:02;24.20;99.90
19622;DHT22;9958;33.196;-97.114;2023-07-02T07:04:32;24.20;99.90
19622;DHT22;9958;33.196;-97.114;2023-07-02T07:07:01;24.20;99.90
19622;DHT22;9958;33.196;-97.114;2023-07-02T07:09:29;24.10;99.90
19622;DHT22;9958;33.196;-97.114;2023-07-02T07:11:57;24.10;99.90
19622;DHT22;9958;33.196;-97.114;2023-07-02T07:14:26;24.10;99.90
19622;DHT22;9958;33.196;-97.114;2023-07-02T07:16:54;24.10;99.90
19622;DHT22;9958;33.196;-97.114;2023-07-02T07:19:23;24.10;99.90
19622;DHT22;9958;33.196;-97.114;2023-07-02T07:21:52;24.10;99.90
19622;DHT22;9958;33.196;-97.114;2023-07-02T07:24:21;24.00;99.90
19622;DHT22;9958;33.196;-97.114;2023-07-02T07:26:49;24.10;99.90
19622;DHT22;9958;33.196;-97.114;2023-07-02T07:29:17;24.10;99.90
19622;DHT22;9958;33.196;-97.114;2023-07-02T07:31:46;24.00;99.90
19622;DHT22;9958;33.196;-97.114;2023-07-02T07:34:14;24.10;99.90
19622;DHT22;9958;33.196;-97.114;2023-07-02T07:36:42;24.10;99.90
19622;DHT22;9958;33.196;-97.114;2023-07-02T07:39:12;24.10;99.90
19622;DHT22;9958;33.196;-97.114;2023-07-02T07:41:41;24.10;99.90
19622;DHT22;9958;33.196;-97.114;2023-07-02T07:44:10;24.10;99.90
19622;DHT22;9958;33.196;-97.114;2023-07-02T07:46:39;24.10;99.90
19622;DHT22;9958;33.196;-97.114;2023-07-02T07:49:07;24.10;99.90
19622;DHT22;9958;33.196;-97.114;2023-07-02T07:51:35;24.10;99.90
19622;DHT22;9958;33.196;-97.114;2023-07-02T07:54:04;24.10;99.90
19622;DHT22;9958;33.196;-97.114;2023-07-02T07:56:34;24.10;99.90
19622;DHT22;9958;33.196;-97.114;2023-07-02T07:59:02;24.10;99.90
19622;DHT22;9958;33.196;-97.114;2023-07-02T08:01:30;24.10;99.90
19622;DHT22;9958;33.196;-97.114;2023-07-02T08:03:59;24.00;99.90
19622;DHT22;9958;33.196;-97.114;2023-07-02T08:06:27;24.00;99.90
19622;DHT22;9958;33.196;-97.114;2023-07-02T08:08:55;24.00;99.90
19622;DHT22;9958;33.196;-97.114;2023-07-02T08:11:24;24.00;99.90
19622;DHT22;9958;33.196;-97.114;2023-07-02T08:13:54;24.00;99.90
19622;DHT22;9958;33.196;-97.114;2023-07-02T08:16:22;24.00;99.90
19622;DHT22;9958;33.196;-97.114;2023-07-02T08:18:50;24.00;99.90
19622;DHT22;9958;33.196;-97.114;2023-07-02T08:21:18;24.00;99.90
19622;DHT22;9958;33.196;-97.114;2023-07-02T08:23:47;23.90;99.90
19622;DHT22;9958;33.196;-97.114;2023-07-02T08:26:15;23.90;99.90
19622;DHT22;9958;33.196;-97.114;2023-07-02T08:28:43;23.90;99.90
19622;DHT22;9958;33.196;-97.114;2023-07-02T08:31:13;23.90;99.90
19622;DHT22;9958;33.196;-97.114;2023-07-02T08:33:42;23.90;99.90
19622;DHT22;9958;33.196;-97.114;2023-07-02T08:36:10;23.90;99.90
19622;DHT22;9958;33.196;-97.114;2023-07-02T08:38:40;23.90;99.90
19622;DHT22;9958;33.196;-97.114;2023-07-02T08:41:09;23.80;99.90
19622;DHT22;9958;33.196;-97.114;2023-07-02T08:43:38;23.80;99.90
19622;DHT22;9958;33.196;-97.114;2023-07-02T08:46:07;23.80;99.90
19622;DHT22;9958;33.196;-97.114;2023-07-02T08:48:37;23.80;99.90
19622;DHT22;9958;33.196;-97.114;2023-07-02T08:51:05;23.70;99.90
19622;DHT22;9958;33.196;-97.114;2023-07-02T08:53:33;23.70;99.90
19622;DHT22;9958;33.196;-97.114;2023-07-02T08:56:03;23.70;99.90
19622;DHT22;9958;33.196;-97.114;2023-07-02T08:58:32;23.70;99.90
19622;DHT22;9958;33.196;-97.114;2023-07-02T09:01:07;23.70;99.90
19622;DHT22;9958;33.196;-97.114;2023-07-02T09:03:37;23.70;99.90
19622;DHT22;9958;33.196;-97.114;2023-07-02T09:06:06;23.70;99.90
19622;DHT22;9958;33.196;-97.114;2023-07-02T09:08:35;23.60;99.90
19622;DHT22;9958;33.196;-97.114;2023-07-02T09:11:07;23.60;99.90
19622;DHT22;9958;33.196;-97.114;2023-07-02T09:13:46;23.60;99.90
19622;DHT22;9958;33.196;-97.114;2023-07-02T09:16:22;23.60;99.90
19622;DHT22;9958;33.196;-97.114;2023-07-02T09:19:00;23.50;99.90
19622;DHT22;9958;33.196;-97.114;2023-07-02T09:21:38;23.50;99.90
19622;DHT22;9958;33.196;-97.114;2023-07-02T09:24:17;23.50;99.90
19622;DHT22;9958;33.196;-97.114;2023-07-02T09:26:47;23.50;99.90
19622;DHT22;9958;33.196;-97.114;2023-07-02T09:29:18;23.40;99.90
19622;DHT22;9958;33.196;-97.114;2023-07-02T09:31:47;23.40;99.90
19622;DHT22;9958;33.196;-97.114;2023-07-02T09:34:18;23.40;99.90
19622;DHT22;9958;33.196;-97.114;2023-07-02T09:36:46;23.40;99.90
19622;DHT22;9958;33.196;-97.114;2023-07-02T09:39:17;23.40;99.90
19622;DHT22;9958;33.196;-97.114;2023-07-02T09:41:45;23.40;99.90
19622;DHT22;9958;33.196;-97.114;2023-07-02T09:44:17;23.30;99.90
19622;DHT22;9958;33.196;-97.114;2023-07-02T09:46:50;23.30;99.90
19622;DHT22;9958;33.196;-97.114;2023-07-02T09:49:22;23.30;99.90
19622;DHT22;9958;33.196;-97.114;2023-07-02T09:51:51;23.30;99.90
19622;DHT22;9958;33.196;-97.114;2023-07-02T09:54:20;23.30;99.90
19622;DHT22;9958;33.196;-97.114;2023-07-02T09:56:48;23.20;99.90
19622;DHT22;9958;33.196;-97.114;2023-07-02T09:59:17;23.20;99.90
19622;DHT22;9958;33.196;-97.114;2023-07-02T10:01:45;23.30;99.90
19622;DHT22;9958;33.196;-97.114;2023-07-02T10:04:14;23.20;99.90
19622;DHT22;9958;33.196;-97.114;2023-07-02T10:06:50;23.20;99.90
19622;DHT22;9958;33.196;-97.114;2023-07-02T10:09:19;23.20;99.90
19622;DHT22;9958;33.196;-97.114;2023-07-02T10:11:47;23.20;99.90
19622;DHT22;9958;33.196;-97.114;2023-07-02T10:14:16;23.20;99.90
19622;DHT22;9958;33.196;-97.114;2023-07-02T10:16:51;23.20;99.90
19622;DHT22;9958;33.196;-97.114;2023-07-02T10:19:20;23.20;99.90
19622;DHT22;9958;33.196;-97.114;2023-07-02T10:22:02;23.20;99.90
19622;DHT22;9958;33.196;-97.114;2023-07-02T10:24:34;23.20;99.90
19622;DHT22;9958;33.196;-97.114;2023-07-02T10:27:03;23.20;99.90
19622;DHT22;9958;33.196;-97.114;2023-07-02T10:29:32;23.10;99.90
19622;DHT22;9958;33.196;-97.114;2023-07-02T10:32:00;23.10;99.90
19622;DHT22;9958;33.196;-97.114;2023-07-02T10:34:32;23.10;99.90
19622;DHT22;9958;33.196;-97.114;2023-07-02T10:37:03;23.10;99.90
19622;DHT22;9958;33.196;-97.114;2023-07-02T10:39:38;23.10;99.90
19622;DHT22;9958;33.196;-97.114;2023-07-02T10:42:07;23.10;99.90
19622;DHT22;9958;33.196;-97.114;2023-07-02T10:44:47;23.10;99.90
19622;DHT22;9958;33.196;-97.114;2023-07-02T10:47:15;23.00;99.90
19622;DHT22;9958;33.196;-97.114;2023-07-02T10:49:44;23.00;99.90
19622;DHT22;9958;33.196;-97.114;2023-07-02T10:52:14;23.00;99.90
19622;DHT22;9958;33.196;-97.114;2023-07-02T10:54:43;23.00;99.90
19622;DHT22;9958;33.196;-97.114;2023-07-02T10:57:14;23.00;99.90
19622;DHT22;9958;33.196;-97.114;2023-07-02T10:59:42;23.00;99.90
19622;DHT22;9958;33.196;-97.114;2023-07-02T11:02:11;23.00;99.90
19622;DHT22;9958;33.196;-97.114;2023-07-02T11:04:39;23.00;99.90
19622;DHT22;9958;33.196;-97.114;2023-07-02T11:07:09;23.00;99.90
19622;DHT22;9958;33.196;-97.114;2023-07-02T11:09:39;23.00;99.90
19622;DHT22;9958;33.196;-97.114;2023-07-02T11:12:08;23.00;99.90
19622;DHT22;9958;33.196;-97.114;2023-07-02T11:14:37;23.00;99.90
19622;DHT22;9958;33.196;-97.114;2023-07-02T11:17:07;23.00;99.90
19622;DHT22;9958;33.196;-97.114;2023-07-02T11:19:36;22.90;99.90
19622;DHT22;9958;33.196;-97.114;2023-07-02T11:22:05;23.00;99.90
19622;DHT22;9958;33.196;-97.114;2023-07-02T11:24:34;22.90;99.90
19622;DHT22;9958;33.196;-97.114;2023-07-02T11:27:05;22.90;99.90
19622;DHT22;9958;33.196;-97.114;2023-07-02T11:29:34;22.90;99.90
19622;DHT22;9958;33.196;-97.114;2023-07-02T11:32:06;22.90;99.90
19622;DHT22;9958;33.196;-97.114;2023-07-02T11:34:36;22.90;99.90
19622;DHT22;9958;33.196;-97.114;2023-07-02T11:37:05;22.90;99.90
19622;DHT22;9958;33.196;-97.114;2023-07-02T11:39:33;22.90;99.90
19622;DHT22;9958;33.196;-97.114;2023-07-02T11:42:03;22.90;99.90
19622;DHT22;9958;33.196;-97.114;2023-07-02T11:44:31;23.00;99.90
19622;DHT22;9958;33.196;-97.114;2023-07-02T11:47:00;23.00;99.90
19622;DHT22;9958;33.196;-97.114;2023-07-02T11:49:28;23.10;99.90
19622;DHT22;9958;33.196;-97.114;2023-07-02T11:51:57;23.10;99.90
19622;DHT22;9958;33.196;-97.114;2023-07-02T11:54:25;23.20;99.90
19622;DHT22;9958;33.196;-97.114;2023-07-02T11:56:53;23.30;99.90
19622;DHT22;9958;33.196;-97.114;2023-07-02T11:59:23;23.40;99.90
19622;DHT22;9958;33.196;-97.114;2023-07-02T12:01:52;23.50;99.90
19622;DHT22;9958;33.196;-97.114;2023-07-02T12:04:20;23.90;99.90
19622;DHT22;9958;33.196;-97.114;2023-07-02T12:06:48;24.40;99.90
19622;DHT22;9958;33.196;-97.114;2023-07-02T12:09:16;25.30;99.90
19622;DHT22;9958;33.196;-97.114;2023-07-02T12:11:45;26.30;99.90
19622;DHT22;9958;33.196;-97.114;2023-07-02T12:14:13;27.50;99.90
19622;DHT22;9958;33.196;-97.114;2023-07-02T12:16:43;28.40;99.90
19622;DHT22;9958;33.196;-97.114;2023-07-02T12:19:11;28.90;99.90
19622;DHT22;9958;33.196;-97.114;2023-07-02T12:21:40;29.20;99.90
19622;DHT22;9958;33.196;-97.114;2023-07-02T12:24:08;29.20;99.90
19622;DHT22;9958;33.196;-97.114;2023-07-02T12:26:37;29.00;99.90
19622;DHT22;9958;33.196;-97.114;2023-07-02T12:29:05;28.70;99.90
19622;DHT22;9958;33.196;-97.114;2023-07-02T12:31:34;28.50;99.90
19622;DHT22;9958;33.196;-97.114;2023-07-02T12:34:04;28.20;99.90
19622;DHT22;9958;33.196;-97.114;2023-07-02T12:36:32;27.90;99.90
19622;DHT22;9958;33.196;-97.114;2023-07-02T12:39:01;27.70;99.90
19622;DHT22;9958;33.196;-97.114;2023-07-02T12:41:29;27.60;99.90
19622;DHT22;9958;33.196;-97.114;2023-07-02T12:43:57;27.50;99.90
19622;DHT22;9958;33.196;-97.114;2023-07-02T12:46:26;27.60;99.90
19622;DHT22;9958;33.196;-97.114;2023-07-02T12:48:54;27.80;99.90
19622;DHT22;9958;33.196;-97.114;2023-07-02T12:51:24;27.80;99.90
19622;DHT22;9958;33.196;-97.114;2023-07-02T12:53:52;27.90;99.90
19622;DHT22;9958;33.196;-97.114;2023-07-02T12:56:20;28.00;99.90
19622;DHT22;9958;33.196;-97.114;2023-07-02T12:58:49;28.00;99.90
19622;DHT22;9958;33.196;-97.114;2023-07-02T13:01:17;27.90;99.90
19622;DHT22;9958;33.196;-97.114;2023-07-02T13:03:46;27.80;99.90
19622;DHT22;9958;33.196;-97.114;2023-07-02T13:06:14;27.60;99.90
19622;DHT22;9958;33.196;-97.114;2023-07-02T13:08:44;27.50;99.90
19622;DHT22;9958;33.196;-97.114;2023-07-02T13:11:13;27.40;99.90
19622;DHT22;9958;33.196;-97.114;2023-07-02T13:13:41;27.30;99.90
19622;DHT22;9958;33.196;-97.114;2023-07-02T13:16:09;27.30;99.90
19622;DHT22;9958;33.196;-97.114;2023-07-02T13:18:38;27.30;99.90
19622;DHT22;9958;33.196;-97.114;2023-07-02T13:21:06;27.40;99.90
19622;DHT22;9958;33.196;-97.114;2023-07-02T13:23:34;27.90;99.90
19622;DHT22;9958;33.196;-97.114;2023-07-02T13:26:04;29.00;99.90
19622;DHT22;9958;33.196;-97.114;2023-07-02T13:28:33;30.10;99.90
19622;DHT22;9958;33.196;-97.114;2023-07-02T13:31:01;31.10;99.90
19622;DHT22;9958;33.196;-97.114;2023-07-02T13:33:29;31.80;99.30
19622;DHT22;9958;33.196;-97.114;2023-07-02T13:35:58;32.30;97.60
19622;DHT22;9958;33.196;-97.114;2023-07-02T13:38:27;32.70;96.60
19622;DHT22;9958;33.196;-97.114;2023-07-02T13:40:55;32.80;96.00
19622;DHT22;9958;33.196;-97.114;2023-07-02T13:43:25;32.90;96.40
19622;DHT22;9958;33.196;-97.114;2023-07-02T13:45:54;32.80;95.50
19622;DHT22;9958;33.196;-97.114;2023-07-02T13:48:22;32.70;95.00
19622;DHT22;9958;33.196;-97.114;2023-07-02T13:50:50;32.50;94.80
19622;DHT22;9958;33.196;-97.114;2023-07-02T13:53:19;32.30;95.20
19622;DHT22;9958;33.196;-97.114;2023-07-02T13:55:49;32.10;96.10
19622;DHT22;9958;33.196;-97.114;2023-07-02T13:58:17;32.10;96.10
19622;DHT22;9958;33.196;-97.114;2023-07-02T14:00:47;32.00;95.90
19622;DHT22;9958;33.196;-97.114;2023-07-02T14:03:16;31.90;95.40
19622;DHT22;9958;33.196;-97.114;2023-07-02T14:05:44;31.90;95.40
19622;DHT22;9958;33.196;-97.114;2023-07-02T14:08:12;32.00;96.10
19622;DHT22;9958;33.196;-97.114;2023-07-02T14:10:41;32.10;95.90
19622;DHT22;9958;33.196;-97.114;2023-07-02T14:13:09;32.20;94.80
19622;DHT22;9958;33.196;-97.114;2023-07-02T14:15:37;32.30;94.20
19622;DHT22;9958;33.196;-97.114;2023-07-02T14:18:07;32.30;93.80
19622;DHT22;9958;33.196;-97.114;2023-07-02T14:20:35;32.30;94.30
19622;DHT22;9958;33.196;-97.114;2023-07-02T14:23:04;32.20;93.70
19622;DHT22;9958;33.196;-97.114;2023-07-02T14:25:33;32.10;94.20
19622;DHT22;9958;33.196;-97.114;2023-07-02T14:28:01;32.10;94.30
19622;DHT22;9958;33.196;-97.114;2023-07-02T14:30:30;32.00;94.70
19622;DHT22;9958;33.196;-97.114;2023-07-02T14:32:58;32.00;95.10
19622;DHT22;9958;33.196;-97.114;2023-07-02T14:35:28;32.00;94.20
19622;DHT22;9958;33.196;-97.114;2023-07-02T14:37:57;32.20;93.20
19622;DHT22;9958;33.196;-97.114;2023-07-02T14:40:25;32.30;92.60
19622;DHT22;9958;33.196;-97.114;2023-07-02T14:42:54;32.50;93.40
19622;DHT22;9958;33.196;-97.114;2023-07-02T14:45:22;32.60;91.60
19622;DHT22;9958;33.196;-97.114;2023-07-02T14:47:50;32.80;91.20
19622;DHT22;9958;33.196;-97.114;2023-07-02T14:50:19;32.90;90.90
19622;DHT22;9958;33.196;-97.114;2023-07-02T14:52:49;33.10;90.30
19622;DHT22;9958;33.196;-97.114;2023-07-02T14:55:17;33.10;88.60
19622;DHT22;9958;33.196;-97.114;2023-07-02T14:57:45;33.10;88.70
19622;DHT22;9958;33.196;-97.114;2023-07-02T15:00:14;33.10;90.00
19622;DHT22;9958;33.196;-97.114;2023-07-02T15:02:43;33.10;89.10
19622;DHT22;9958;33.196;-97.114;2023-07-02T15:05:11;33.10;88.70
19622;DHT22;9958;33.196;-97.114;2023-07-02T15:07:39;33.00;89.20
19622;DHT22;9958;33.196;-97.114;2023-07-02T15:10:09;33.10;89.90
19622;DHT22;9958;33.196;-97.114;2023-07-02T15:12:37;33.20;88.10
19622;DHT22;9958;33.196;-97.114;2023-07-02T15:15:06;33.40;86.90
19622;DHT22;9958;33.196;-97.114;2023-07-02T15:17:35;33.60;86.90
19622;DHT22;9958;33.196;-97.114;2023-07-02T15:20:04;33.90;86.10
19622;DHT22;9958;33.196;-97.114;2023-07-02T15:22:33;34.20;85.70
19622;DHT22;9958;33.196;-97.114;2023-07-02T15:25:01;34.50;83.90